createdAt,value
2019-05-10T00:00:10.329Z,96519.73
2019-05-10T00:02:56.747Z,96512.91
2019-05-10T00:05:43.531Z,96519.16
2019-05-10T00:08:30.032Z,96515.45
2019-05-10T00:11:06.319Z,96517.30
2019-05-10T00:13:40.083Z,96528.38
2019-05-10T00:16:08.736Z,96523.81
2019-05-10T00:18:37.159Z,96525.00
2019-05-10T00:21:05.613Z,96523.09
2019-05-10T00:23:34.074Z,96531.06
2019-05-10T00:26:02.530Z,96531.22
2019-05-10T00:28:30.962Z,96532.22
2019-05-10T00:30:59.614Z,96534.14
2019-05-10T00:33:27.995Z,96535.95
2019-05-10T00:35:56.399Z,96542.59
2019-05-10T00:38:24.791Z,96547.57
2019-05-10T00:40:53.194Z,96545.70
2019-05-10T00:43:21.598Z,96548.05
2019-05-10T00:45:50.062Z,96561.55
2019-05-10T00:48:18.502Z,96562.92
2019-05-10T00:50:46.961Z,96564.65
2019-05-10T00:53:15.271Z,96563.00
2019-05-10T00:55:43.664Z,96562.53
2019-05-10T00:58:12.320Z,96563.75
2019-05-10T01:00:40.721Z,96568.38
2019-05-10T01:03:09.098Z,96572.09
2019-05-10T01:05:37.547Z,96579.78
2019-05-10T01:08:05.938Z,96571.94
2019-05-10T01:10:34.382Z,96580.91
2019-05-10T01:13:02.785Z,96574.52
2019-05-10T01:15:31.174Z,96573.03
2019-05-10T01:17:59.575Z,96582.61
2019-05-10T01:20:27.970Z,96586.21
2019-05-10T01:22:56.351Z,96591.00
2019-05-10T01:25:34.685Z,96591.47
2019-05-10T01:27:54.868Z,96597.86
2019-05-10T01:30:23.433Z,96597.00
2019-05-10T01:32:51.892Z,96599.98
2019-05-10T01:35:20.311Z,96605.16
2019-05-10T01:37:48.697Z,96609.42
2019-05-10T01:40:17.220Z,96608.87
2019-05-10T01:42:45.608Z,96614.05
2019-05-10T01:45:14.439Z,96611.55
2019-05-10T01:47:42.849Z,96602.88
2019-05-10T01:50:11.602Z,96616.41
2019-05-10T01:52:39.983Z,96621.23
2019-05-10T01:55:08.707Z,96617.86
2019-05-10T01:57:37.118Z,96620.84
2019-05-10T02:00:09.710Z,96620.84
2019-05-10T02:02:38.087Z,96624.33
2019-05-10T02:05:06.888Z,96628.22
2019-05-10T02:07:35.286Z,96626.17
2019-05-10T02:10:07.434Z,96635.62
2019-05-10T02:12:35.837Z,96633.03
2019-05-10T02:15:08.224Z,96632.17
2019-05-10T02:17:36.604Z,96629.51
2019-05-10T02:20:06.590Z,96632.95
2019-05-10T02:22:35.032Z,96641.70
2019-05-10T02:25:04.008Z,96645.58
2019-05-10T02:27:32.408Z,96647.88
2019-05-10T02:30:00.812Z,96652.28
2019-05-10T02:32:29.209Z,96663.25
2019-05-10T02:34:57.685Z,96657.09
2019-05-10T02:37:26.083Z,96660.58
2019-05-10T02:39:54.476Z,96666.77
2019-05-10T02:42:22.912Z,96671.47
2019-05-10T02:44:51.317Z,96672.30
2019-05-10T02:47:19.705Z,96663.70
2019-05-10T02:49:48.118Z,96673.16
2019-05-10T02:52:17.039Z,96669.70
2019-05-10T02:54:45.480Z,96678.77
2019-05-10T02:57:14.837Z,96674.38
2019-05-10T02:59:44.318Z,96676.41
2019-05-10T03:02:14.273Z,96684.17
2019-05-10T03:04:45.894Z,96682.05
2019-05-10T03:07:17.488Z,96684.64
2019-05-10T03:09:50.269Z,96689.81
2019-05-10T03:12:24.138Z,96695.89
2019-05-10T03:14:57.983Z,96684.72
2019-05-10T03:17:27.267Z,96696.44
2019-05-10T03:19:55.891Z,96692.23
2019-05-10T03:22:25.836Z,96689.42
2019-05-10T03:24:54.469Z,96701.45
2019-05-10T03:27:22.839Z,96709.36
2019-05-10T03:29:51.551Z,96710.80
2019-05-10T03:32:19.958Z,96713.92
2019-05-10T03:34:48.406Z,96713.97
2019-05-10T03:37:16.861Z,96716.63
2019-05-10T03:39:45.381Z,96716.23
2019-05-10T03:42:13.775Z,96722.31
2019-05-10T03:44:42.161Z,96731.00
2019-05-10T03:47:10.568Z,96723.38
2019-05-10T03:49:38.952Z,96731.22
2019-05-10T03:52:07.384Z,96730.36
2019-05-10T03:54:35.765Z,96729.45
2019-05-10T03:57:13.210Z,96733.41
2019-05-10T03:59:34.634Z,96734.77
2019-05-10T04:02:03.015Z,96737.50
2019-05-10T04:04:31.419Z,96734.98
2019-05-10T04:06:59.816Z,96733.77
2019-05-10T04:09:28.197Z,96736.81
2019-05-10T04:11:56.589Z,96740.30
2019-05-10T04:14:24.967Z,96741.98
2019-05-10T04:16:53.396Z,96752.33
2019-05-10T04:19:21.791Z,96754.09
2019-05-10T04:21:50.186Z,96751.50
2019-05-10T04:24:18.586Z,96758.33
2019-05-10T04:26:46.960Z,96760.91
2019-05-10T04:29:15.360Z,96753.77
2019-05-10T04:31:43.740Z,96766.27
2019-05-10T04:34:12.123Z,96763.67
2019-05-10T04:36:40.504Z,96763.00
2019-05-10T04:39:08.926Z,96764.14
2019-05-10T04:41:37.338Z,96760.27
2019-05-10T04:44:05.808Z,96759.44
2019-05-10T04:46:34.199Z,96761.95
2019-05-10T04:49:02.597Z,96764.24
2019-05-10T04:51:30.977Z,96764.70
2019-05-10T04:53:59.377Z,96763.72
2019-05-10T04:56:27.801Z,96768.45
2019-05-10T04:58:56.209Z,96772.39
2019-05-10T05:01:24.583Z,96774.67
2019-05-10T05:03:53.001Z,96776.49
2019-05-10T05:06:21.472Z,96693.78
2019-05-10T05:08:49.955Z,96776.86
2019-05-10T05:11:18.458Z,96785.27
2019-05-10T05:13:46.818Z,96785.86
2019-05-10T05:16:15.199Z,96788.34
2019-05-10T05:18:43.590Z,96789.84
2019-05-10T05:21:12.052Z,96786.06
2019-05-10T05:23:40.445Z,96789.63
2019-05-10T05:26:08.820Z,96790.47
2019-05-10T05:28:37.223Z,96795.31
2019-05-10T05:31:05.630Z,96805.20
2019-05-10T05:33:34.041Z,96806.63
2019-05-10T05:36:02.615Z,96750.00
2019-05-10T05:38:31.104Z,96822.59
2019-05-10T05:40:59.493Z,96824.82
2019-05-10T05:43:27.884Z,96827.72
2019-05-10T05:45:56.274Z,96820.44
2019-05-10T05:48:39.488Z,96825.97
2019-05-10T05:50:54.769Z,96834.42
2019-05-10T05:53:23.167Z,96833.52
2019-05-10T05:55:51.563Z,96823.72
2019-05-10T05:58:26.633Z,96835.38
2019-05-10T06:00:50.094Z,96832.02
2019-05-10T06:03:27.588Z,96831.41
2019-05-10T06:05:48.785Z,96834.20
2019-05-10T06:08:23.096Z,96831.66
2019-05-10T06:10:56.174Z,96835.78
2019-05-10T06:13:17.402Z,96840.81
2019-05-10T06:15:45.796Z,96787.08
2019-05-10T06:18:14.182Z,96848.53
2019-05-10T06:20:44.496Z,96838.70
2019-05-10T06:23:13.028Z,96846.33
2019-05-10T06:25:42.794Z,96843.72
2019-05-10T06:28:25.651Z,96817.72
2019-05-10T06:30:41.490Z,96849.39
2019-05-10T06:33:12.751Z,96855.67
2019-05-10T06:35:40.008Z,96854.77
2019-05-10T06:38:08.486Z,96859.71
2019-05-10T06:40:44.541Z,96856.16
2019-05-10T06:43:12.914Z,96855.94
2019-05-10T06:45:37.120Z,96851.05
2019-05-10T06:48:05.499Z,96859.48
2019-05-10T06:50:33.889Z,96865.16
2019-05-10T06:53:07.961Z,96853.34
2019-05-10T06:55:32.411Z,96861.13
2019-05-10T06:58:01.027Z,96864.58
2019-05-10T07:00:29.415Z,96856.61
2019-05-10T07:02:57.798Z,96860.12
2019-05-10T07:05:26.181Z,96863.45
2019-05-10T07:08:00.632Z,96868.82
2019-05-10T07:10:25.354Z,96866.78
2019-05-10T07:12:56.951Z,96863.88
2019-05-10T07:15:23.944Z,96869.42
2019-05-10T07:17:52.425Z,96864.95
2019-05-10T07:20:23.731Z,96866.39
2019-05-10T07:22:50.965Z,96859.30
2019-05-10T07:25:19.355Z,96863.37
2019-05-10T07:27:50.262Z,96867.81
2019-05-10T07:30:32.693Z,96869.61
2019-05-10T07:33:02.017Z,96872.70
2019-05-10T07:35:36.089Z,96872.06
2019-05-10T07:38:00.852Z,96871.04
2019-05-10T07:40:29.283Z,96864.83
2019-05-10T07:42:57.642Z,96871.98
2019-05-10T07:45:27.314Z,96870.30
2019-05-10T07:47:55.901Z,96874.13
2019-05-10T07:50:24.291Z,96872.34
2019-05-10T07:52:52.679Z,96871.14
2019-05-10T07:55:28.010Z,96877.98
2019-05-10T07:57:51.233Z,96885.31
2019-05-10T08:00:19.795Z,96878.61
2019-05-10T08:02:51.180Z,96871.72
2019-05-10T08:05:18.573Z,96883.34
2019-05-10T08:07:49.354Z,96883.82
2019-05-10T08:10:18.693Z,96877.91
2019-05-10T08:12:48.397Z,96884.79
2019-05-10T08:15:19.324Z,96882.56
2019-05-10T08:17:50.492Z,96875.80
2019-05-10T08:20:33.329Z,96894.64
2019-05-10T08:22:47.809Z,96889.27
2019-05-10T08:25:16.261Z,96898.18
2019-05-10T08:27:50.674Z,96891.67
2019-05-10T08:30:26.267Z,96896.34
2019-05-10T08:32:48.043Z,96892.90
2019-05-10T08:35:18.609Z,96889.44
2019-05-10T08:37:46.563Z,96892.78
2019-05-10T08:40:19.653Z,96884.61
2019-05-10T08:42:49.037Z,96889.98
2019-05-10T08:45:15.251Z,96892.20
2019-05-10T08:47:43.637Z,96891.12
2019-05-10T08:50:28.871Z,96902.36
2019-05-10T08:52:44.143Z,96902.64
2019-05-10T08:55:12.672Z,96910.82
2019-05-10T09:00:41.630Z,96916.58
2019-05-10T09:03:00.911Z,96924.95
2019-05-10T09:05:28.933Z,96923.09
2019-05-10T09:07:57.567Z,96926.07
2019-05-10T09:10:25.994Z,96926.07
2019-05-10T09:12:58.071Z,96919.00
2019-05-10T09:15:24.489Z,96915.95
2019-05-10T09:17:52.963Z,96920.22
2019-05-10T09:20:26.210Z,96869.94
2019-05-10T09:22:52.867Z,96925.13
2019-05-10T09:25:29.205Z,96926.16
2019-05-10T09:27:53.118Z,96927.70
2019-05-10T09:30:32.412Z,96934.22
2019-05-10T09:33:08.326Z,96944.28
2019-05-10T09:35:32.861Z,96944.48
2019-05-10T09:38:02.032Z,96943.63
2019-05-10T09:40:32.697Z,96941.05
2019-05-10T09:43:05.169Z,96944.10
2019-05-10T09:45:32.404Z,96943.44
2019-05-10T09:48:02.491Z,96951.23
2019-05-10T09:50:41.153Z,96948.25
2019-05-10T09:53:01.184Z,96957.36
2019-05-10T09:55:29.568Z,96954.02
2019-05-10T09:57:58.433Z,96950.59
2019-05-10T10:00:32.930Z,96949.94
2019-05-10T10:03:01.903Z,96947.80
2019-05-10T10:05:30.378Z,96953.12
2019-05-10T10:08:03.805Z,96949.49
2019-05-10T10:10:32.281Z,96945.97
2019-05-10T10:13:08.420Z,96953.95
2019-05-10T10:15:34.104Z,96942.03
2019-05-10T10:17:59.477Z,96942.99
2019-05-10T10:20:29.971Z,96944.33
2019-05-10T10:22:57.982Z,96943.08
2019-05-10T10:25:29.732Z,96943.95
2019-05-10T10:27:57.433Z,96938.13
2019-05-10T10:30:27.588Z,96940.08
2019-05-10T10:32:58.077Z,96943.22
2019-05-10T10:35:29.669Z,96940.84
2019-05-10T10:37:57.498Z,96950.31
2019-05-10T10:40:27.972Z,96947.48
2019-05-10T10:42:57.776Z,96941.48
2019-05-10T10:45:27.706Z,96940.59
2019-05-10T10:47:57.346Z,96941.94
2019-05-10T10:50:27.578Z,96938.64
2019-05-10T10:52:57.474Z,96945.02
2019-05-10T10:55:32.470Z,96940.48
2019-05-10T10:57:57.684Z,96947.63
2019-05-10T11:00:34.232Z,96943.72
2019-05-10T11:03:04.263Z,96945.98
2019-05-10T11:05:32.642Z,96948.77
2019-05-10T11:08:01.223Z,96954.15
2019-05-10T11:10:31.361Z,96949.52
2019-05-10T11:13:02.913Z,96951.64
2019-05-10T11:15:35.994Z,96953.16
2019-05-10T11:18:00.845Z,96957.77
2019-05-10T11:20:31.545Z,96961.17
2019-05-10T11:22:59.374Z,96962.48
2019-05-10T11:25:27.760Z,96957.70
2019-05-10T11:27:58.537Z,96955.85
2019-05-10T11:30:26.310Z,96957.26
2019-05-10T11:32:54.713Z,96965.75
2019-05-10T11:35:28.468Z,96968.15
2019-05-10T11:37:53.237Z,96971.55
2019-05-10T11:40:30.525Z,96970.13
2019-05-10T11:42:51.862Z,96960.16
2019-05-10T11:45:21.005Z,96958.52
2019-05-10T11:47:54.408Z,96976.45
2019-05-10T11:50:28.985Z,96980.70
2019-05-10T11:52:51.339Z,96980.89
2019-05-10T11:55:21.621Z,96984.22
2019-05-10T12:00:29.249Z,96985.61
2019-05-10T12:03:11.359Z,96973.34
2019-05-10T12:07:51.762Z,96976.94
2019-05-10T12:10:25.773Z,96979.77
2019-05-10T12:13:06.112Z,96984.47
2019-05-10T12:15:25.305Z,96977.88
2019-05-10T12:17:57.965Z,96981.03
2019-05-10T12:20:26.914Z,96974.80
2019-05-10T12:22:52.213Z,96977.34
2019-05-10T12:25:37.783Z,96976.50
2019-05-10T12:25:59.930Z,96970.86
2019-05-10T12:26:20.297Z,96983.30
2019-05-10T12:27:52.313Z,96980.25
2019-05-10T12:30:21.653Z,96973.59
2019-05-10T12:33:05.904Z,96982.56
2019-05-10T12:35:21.322Z,96980.03
2019-05-10T12:37:53.983Z,96987.11
2019-05-10T12:40:23.866Z,96997.15
2019-05-10T12:42:50.416Z,96999.34
2019-05-10T12:45:22.874Z,96996.98
2019-05-10T12:47:51.812Z,97001.88
2019-05-10T12:50:20.583Z,97007.27
2019-05-10T12:53:02.638Z,97020.64
2019-05-10T12:55:19.247Z,97018.66
2019-05-10T12:57:47.625Z,97020.87
2019-05-10T13:00:16.362Z,97026.88
2019-05-10T13:02:51.335Z,97034.52
2019-05-10T13:05:15.993Z,97031.56
2019-05-10T13:07:44.538Z,97027.32
2019-05-10T13:10:13.284Z,97021.72
2019-05-10T13:12:44.525Z,97020.98
2019-05-10T13:15:12.025Z,97016.48
2019-05-10T13:17:43.985Z,97016.81
2019-05-10T13:20:11.361Z,97026.69
2019-05-10T13:22:39.765Z,97026.26
2019-05-10T13:25:08.493Z,97022.72
2019-05-10T13:27:37.001Z,97027.02
2019-05-10T13:30:07.662Z,97019.39
2019-05-10T13:32:36.054Z,97020.89
2019-05-10T13:35:05.780Z,97023.55
2019-05-10T13:37:34.238Z,97029.83
2019-05-10T13:40:05.593Z,97028.14
2019-05-10T13:42:36.431Z,97027.22
2019-05-10T13:45:03.145Z,97016.48
2019-05-10T13:47:31.526Z,97011.69
2019-05-10T13:50:00.004Z,96961.94
2019-05-10T13:52:34.045Z,97012.63
2019-05-10T13:54:58.535Z,97000.73
2019-05-10T13:57:26.909Z,97004.55
2019-05-10T13:59:57.314Z,97004.35
2019-05-10T14:02:32.658Z,97000.64
2019-05-10T14:04:55.551Z,97000.26
2019-05-10T14:07:23.950Z,97001.66
2019-05-10T14:09:52.392Z,97000.12
2019-05-10T14:12:23.292Z,97001.14
2019-05-10T14:14:55.574Z,96999.36
2019-05-10T14:17:21.149Z,96988.92
2019-05-10T14:19:49.589Z,96989.09
2019-05-10T14:22:17.999Z,96991.84
2019-05-10T14:24:46.975Z,96993.13
2019-05-10T14:27:16.518Z,96985.67
2019-05-10T14:29:44.901Z,96983.06
2019-05-10T14:32:13.308Z,96971.14
2019-05-10T14:34:43.935Z,96984.19
2019-05-10T14:37:14.285Z,96989.61
2019-05-10T14:39:41.942Z,96990.41
2019-05-10T14:42:10.328Z,96984.77
2019-05-10T14:44:39.163Z,96987.47
2019-05-10T14:47:10.851Z,96990.98
2019-05-10T14:49:42.220Z,96987.73
2019-05-10T14:52:07.832Z,96988.59
2019-05-10T14:54:43.603Z,96990.31
2019-05-10T14:57:06.344Z,96986.08
2019-05-10T14:59:34.998Z,96986.02
2019-05-10T15:02:03.371Z,96992.98
2019-05-10T15:04:47.399Z,96993.22
2019-05-10T15:07:01.881Z,96988.52
2019-05-10T15:09:30.269Z,96992.09
2019-05-10T15:11:58.661Z,96993.64
2019-05-10T15:14:27.049Z,96987.45
2019-05-10T15:16:55.451Z,96986.57
2019-05-10T15:19:28.639Z,96991.06
2019-05-10T15:21:53.979Z,96989.83
2019-05-10T15:24:22.355Z,96992.55
2019-05-10T15:26:50.749Z,96998.95
2019-05-10T15:29:22.358Z,97004.92
2019-05-10T15:31:49.246Z,96995.72
2019-05-10T15:34:17.709Z,96990.19
2019-05-10T15:36:46.096Z,96990.56
2019-05-10T15:39:14.579Z,96998.54
2019-05-10T15:41:42.971Z,96998.54
2019-05-10T15:44:11.373Z,97010.51
2019-05-10T15:46:42.320Z,97007.76
2019-05-10T15:49:13.595Z,97016.22
2019-05-10T15:51:40.119Z,97015.91
2019-05-10T15:54:08.537Z,97014.64
2019-05-10T15:56:41.479Z,97008.17
2019-05-10T15:59:07.026Z,97008.69
2019-05-10T16:01:35.468Z,97006.48
2019-05-10T16:04:03.862Z,97014.81
2019-05-10T16:06:37.354Z,97024.55
2019-05-10T16:09:16.402Z,97031.48
2019-05-10T16:11:33.179Z,97032.25
2019-05-10T16:14:01.841Z,97035.70
2019-05-10T16:16:36.113Z,97041.22
2019-05-10T16:19:00.301Z,97042.56
2019-05-10T16:21:28.716Z,97047.41
2019-05-10T16:23:57.122Z,97049.48
2019-05-10T16:26:25.512Z,97045.77
2019-05-10T16:29:01.319Z,97053.58
2019-05-10T16:31:24.106Z,97052.42
2019-05-10T16:33:53.494Z,97058.00
2019-05-10T16:36:23.205Z,97052.44
2019-05-10T16:38:52.728Z,97052.14
2019-05-10T16:41:21.111Z,97049.05
2019-05-10T16:43:51.813Z,97052.14
2019-05-10T16:46:19.610Z,97048.82
2019-05-10T16:48:47.998Z,97054.80
2019-05-10T16:51:16.395Z,97049.23
2019-05-10T16:53:45.966Z,97055.38
2019-05-10T16:56:18.925Z,97050.94
2019-05-10T16:58:47.766Z,97052.44
2019-05-10T17:01:18.650Z,97049.30
2019-05-10T17:03:44.965Z,97047.25
2019-05-10T17:06:13.373Z,97055.53
2019-05-10T17:08:41.756Z,97049.68
2019-05-10T17:11:11.935Z,97047.27
2019-05-10T17:13:41.513Z,97054.36
2019-05-10T17:16:11.661Z,97052.41
2019-05-10T17:18:40.531Z,97054.73
2019-05-10T17:21:08.915Z,97050.64
2019-05-10T17:23:41.521Z,97053.09
2019-05-10T17:26:07.413Z,97046.38
2019-05-10T17:28:37.383Z,97051.43
2019-05-10T17:31:07.918Z,97049.45
2019-05-10T17:33:36.916Z,97052.34
2019-05-10T17:36:08.718Z,97049.58
2019-05-10T17:38:36.207Z,97051.89
2019-05-10T17:41:04.602Z,97058.25
2019-05-10T17:43:32.981Z,97062.60
2019-05-10T17:46:02.403Z,97064.47
2019-05-10T17:48:30.800Z,97068.95
2019-05-10T17:50:59.336Z,97071.91
2019-05-10T17:53:27.743Z,97078.61
2019-05-10T17:56:02.196Z,97076.00
2019-05-10T17:58:27.925Z,97077.39
2019-05-10T18:00:56.435Z,97077.05
2019-05-10T18:03:24.817Z,97068.02
2019-05-10T18:05:53.580Z,97068.11
2019-05-10T18:08:22.083Z,97070.08
2019-05-10T18:10:50.445Z,97075.47
2019-05-10T18:13:18.828Z,97083.17
2019-05-10T18:15:47.243Z,97080.37
2019-05-10T18:18:15.704Z,97082.80
2019-05-10T18:20:44.596Z,97085.17
2019-05-10T18:23:20.050Z,97094.02
2019-05-10T18:25:43.311Z,97089.53
2019-05-10T18:28:11.720Z,97091.48
2019-05-10T18:30:40.183Z,97088.70
2019-05-10T18:33:12.499Z,97093.14
2019-05-10T18:35:39.518Z,97096.40
2019-05-10T18:38:07.925Z,97097.87
2019-05-10T18:40:36.383Z,97091.07
2019-05-10T18:43:05.905Z,97091.07
2019-05-10T18:45:34.299Z,97095.54
2019-05-10T18:48:02.701Z,97093.97
2019-05-10T18:50:31.131Z,97091.16
2019-05-10T18:52:59.532Z,97088.34
2019-05-10T18:55:27.918Z,97094.77
2019-05-10T18:57:56.307Z,97096.71
2019-05-10T19:00:25.337Z,97097.80
2019-05-10T19:02:55.179Z,97103.17
2019-05-10T19:05:25.377Z,97105.95
2019-05-10T19:08:03.092Z,97110.77
2019-05-10T19:10:24.203Z,97108.73
2019-05-10T19:12:59.977Z,97105.37
2019-05-10T19:15:22.702Z,97101.18
2019-05-10T19:17:51.079Z,97110.92
2019-05-10T19:20:19.471Z,97115.39
2019-05-10T19:22:48.159Z,97119.98
2019-05-10T19:25:17.475Z,97122.02
2019-05-10T19:27:50.626Z,97124.42
2019-05-10T19:30:20.110Z,97124.28
2019-05-10T19:32:51.072Z,97145.89
2019-05-10T19:35:16.519Z,97138.03
2019-05-10T19:37:44.918Z,97138.91
2019-05-10T19:40:13.552Z,97143.30
2019-05-10T19:42:42.983Z,97146.36
2019-05-10T19:45:12.976Z,97147.62
2019-05-10T19:47:42.366Z,97142.36
2019-05-10T19:50:12.369Z,97143.97
2019-05-10T19:52:40.756Z,97144.29
2019-05-10T19:55:12.956Z,97139.20
2019-05-10T19:57:39.491Z,97132.12
2019-05-10T20:00:08.421Z,97119.66
2019-05-10T20:02:36.871Z,97103.04
2019-05-10T20:05:06.961Z,97098.28
2019-05-10T20:07:45.252Z,97114.80
2019-05-10T20:10:07.804Z,97120.83
2019-05-10T20:12:36.639Z,97126.33
2019-05-10T20:15:07.187Z,97124.28
2019-05-10T20:17:35.630Z,97126.87
2019-05-10T20:20:06.425Z,97130.02
2019-05-10T20:22:36.302Z,97132.01
2019-05-10T20:25:06.117Z,97137.66
2019-05-10T20:27:34.512Z,97131.47
2019-05-10T20:30:02.967Z,97130.79
2019-05-10T20:32:31.368Z,97135.98
2019-05-10T20:35:00.364Z,97132.92
2019-05-10T20:37:28.746Z,97135.36
2019-05-10T20:39:57.135Z,97138.35
2019-05-10T20:42:25.533Z,97136.91
2019-05-10T20:45:06.726Z,97135.06
2019-05-10T20:47:25.043Z,97130.41
2019-05-10T20:49:53.432Z,97125.89
2019-05-10T20:52:21.937Z,97126.83
2019-05-10T20:54:50.334Z,97117.66
2019-05-10T20:57:18.727Z,97111.78
2019-05-10T20:59:47.109Z,97106.74
2019-05-10T21:02:16.487Z,97111.17
2019-05-10T21:04:44.881Z,97109.41
2019-05-10T21:07:13.267Z,97117.20
2019-05-10T21:09:42.649Z,97114.20
2019-05-10T21:12:11.031Z,97115.51
2019-05-10T21:14:39.415Z,97124.05
2019-05-10T21:17:07.823Z,97122.83
2019-05-10T21:19:36.219Z,97123.73
2019-05-10T21:22:04.608Z,97124.67
2019-05-10T21:24:33.018Z,97121.36
2019-05-10T21:27:01.419Z,97120.24
2019-05-10T21:29:29.810Z,97115.64
2019-05-10T21:31:58.205Z,97112.76
2019-05-10T21:34:26.577Z,97110.52
2019-05-10T21:36:54.974Z,97102.75
2019-05-10T21:39:23.398Z,97109.30
2019-05-10T21:41:51.798Z,97108.55
2019-05-10T21:44:20.214Z,97109.84
2019-05-10T21:46:48.636Z,97114.24
2019-05-10T21:49:17.038Z,97114.67
2019-05-10T21:51:45.467Z,97118.64
2019-05-10T21:54:13.852Z,97114.45
2019-05-10T21:56:42.273Z,97119.72
2019-05-10T21:59:10.709Z,97116.30
2019-05-10T22:01:39.212Z,97118.81
2019-05-10T22:04:07.713Z,97122.38
2019-05-10T22:06:36.127Z,97120.01
2019-05-10T22:09:07.071Z,97122.13
2019-05-10T22:11:35.510Z,97121.70
2019-05-10T22:14:04.024Z,97126.42
2019-05-10T22:16:32.466Z,97125.19
2019-05-10T22:19:02.168Z,97129.08
2019-05-10T22:21:30.587Z,97134.27
2019-05-10T22:23:59.080Z,97129.62
2019-05-10T22:26:27.511Z,97131.35
2019-05-10T22:28:55.935Z,97134.02
2019-05-10T22:31:24.358Z,97128.47
2019-05-10T22:33:52.798Z,97130.27
2019-05-10T22:36:21.226Z,97140.41
2019-05-10T22:39:05.698Z,97136.13
2019-05-10T22:41:19.818Z,97126.16
2019-05-10T22:43:48.243Z,97130.95
2019-05-10T22:46:16.695Z,97127.52
2019-05-10T22:48:45.118Z,97131.41
2019-05-10T22:51:13.541Z,97123.17
2019-05-10T22:53:41.961Z,97117.23
2019-05-10T22:56:10.409Z,97116.47
2019-05-10T22:58:38.856Z,97108.84
2019-05-10T23:01:07.316Z,97103.80
2019-05-10T23:03:35.754Z,97109.12
2019-05-10T23:06:04.246Z,97117.72
2019-05-10T23:08:32.681Z,97119.44
2019-05-10T23:11:01.190Z,97117.31
2019-05-10T23:13:29.700Z,97122.90
2019-05-10T23:15:58.185Z,97126.39
2019-05-10T23:18:26.685Z,97136.28
2019-05-10T23:20:55.122Z,97132.11
2019-05-10T23:23:23.609Z,97113.52
2019-05-10T23:25:52.054Z,97126.13
2019-05-10T23:28:20.508Z,97130.02
2019-05-10T23:30:48.980Z,97128.86
2019-05-10T23:33:17.421Z,97123.68
2019-05-10T23:35:45.857Z,97115.55
2019-05-10T23:38:14.302Z,97100.00
2019-05-10T23:40:42.772Z,97108.20
2019-05-10T23:43:11.234Z,97111.27
2019-05-10T23:45:39.710Z,97119.93
2019-05-10T23:48:08.184Z,97111.80
2019-05-10T23:50:36.602Z,97110.94
2019-05-10T23:53:05.120Z,97107.52
2019-05-10T23:55:33.542Z,97106.61
2019-05-10T23:58:01.993Z,97108.41
